Latest Weather Observations for Beerburrum

IDQ60901

Issued at 5:51 pm EST Sunday 11 December 2016 (issued every 10 minutes, with the page automatically refreshed every 10 minutes)

About weather observations | Map of Brisbane area stations | Latest observations for Brisbane area | Other Formats
Station Details ID: 040284 Name: BEERBURRUM FOREST STATION Lat: -26.96 Lon: 152.96 Height: 48.0 m
Data from the previous 72 hours. | See also: Recent months at Beerburrum
Date/Time
EST
Temp
°C
App
Temp
°C
Dew
Point
°C
Rel
Hum
%
Delta-T
°C
Wind Press
QNH
hPa
Press
MSL
hPa
Rain since
9am
mm
Dir  Spd
km/h
Gust
km/h
Spd
kts
Gust
kts
11/05:30pm 22.8 22.9 13.8 57 5.3 SSE 6 19 3 10 - - 0.0
11/05:00pm 23.3 23.4 14.0 56 5.5 E 6 13 3 7 - - 0.0
11/04:30pm 23.3 23.0 13.2 53 5.8 SSE 7 13 4 7 - - 0.0
11/04:00pm 23.8 24.0 13.1 51 6.2 ESE 4 13 2 7 - - 0.0
11/03:30pm 23.7 23.2 12.7 50 6.3 ESE 7 13 4 7 - - 0.0
11/03:00pm 24.2 23.7 12.5 48 6.7 ESE 7 17 4 9 - - 0.0
11/02:30pm 24.3 23.9 12.9 49 6.6 ESE 7 13 4 7 - - 0.0
11/02:00pm 24.8 24.5 13.4 49 6.7 SE 7 15 4 8 - - 0.0
11/01:30pm 25.1 24.9 13.6 49 6.8 ESE 7 15 4 8 - - 0.0
11/01:00pm 24.6 24.0 13.5 50 6.5 SE 9 15 5 8 - - 0.0
11/12:30pm 24.9 24.6 12.8 47 7.0 ESE 6 13 3 7 - - 0.0
11/12:00pm 25.5 24.4 12.0 43 7.7 ESE 9 17 5 9 - - 0.0
11/11:30am 25.6 24.3 11.4 41 8.1 SSE 9 19 5 10 - - 0.0
11/11:00am 25.3 24.3 12.2 44 7.5 SSE 9 17 5 9 - - 0.0
11/10:30am 23.2 22.9 13.4 54 5.7 SE 7 13 4 7 - - 0.0
11/10:00am 25.1 24.9 14.6 52 6.3 SSE 9 19 5 10 - - 0.0
11/09:30am 25.2 24.5 13.1 47 7.1 ESE 9 20 5 11 - - 0.0
11/09:00am 23.7 23.0 13.3 52 6.0 SSE 9 19 5 10 - - 0.0
11/08:30am 24.8 24.5 14.3 52 6.2 ESE 9 19 5 10 - - 0.0
11/08:00am 24.2 24.5 15.1 56 5.5 ESE 7 15 4 8 - - 0.0
11/07:30am 23.4 23.8 15.2 60 4.9 E 7 15 4 8 - - 0.0
11/07:00am 22.0 24.0 16.1 69 3.6 CALM 0 6 0 3 - - 0.0
11/06:30am 21.1 23.4 16.7 76 2.7 CALM 0 0 0 0 - - 0.0
11/06:00am 18.8 20.5 17.1 90 1.0 SW 4 6 2 3 - - 0.0
11/05:30am 16.9 18.7 15.4 91 0.9 CALM 0 0 0 0 - - 0.0
11/05:00am 16.7 18.4 15.1 90 0.9 CALM 0 0 0 0 - - 0.0
11/04:30am 17.0 18.7 15.2 89 1.0 CALM 0 0 0 0 - - 0.0
11/04:00am 17.3 19.0 15.3 88 1.2 CALM 0 0 0 0 - - 0.0
11/03:30am 17.6 19.4 15.6 88 1.2 CALM 0 0 0 0 - - 0.0
11/03:00am 17.7 19.5 15.5 87 1.3 CALM 0 0 0 0 - - 0.0
11/02:30am 17.9 19.7 15.5 86 1.4 CALM 0 6 0 3 - - 0.0
11/02:00am 18.0 19.8 15.6 86 1.4 CALM 0 0 0 0 - - 0.0
11/01:30am 18.3 20.1 15.4 83 1.7 CALM 0 0 0 0 - - 0.0
11/01:00am 18.7 20.5 15.4 81 1.9 CALM 0 0 0 0 - - 0.0
11/12:30am 18.9 20.7 15.6 81 2.0 CALM 0 0 0 0 - - 0.0
11/12:00am 19.5 21.3 15.6 78 2.3 CALM 0 0 0 0 - - 0.0
 
Date/Time
EST
Temp
°C
App
Temp
°C
Dew
Point
°C
Rel
Hum
%
Delta-T
°C
Wind Press
QNH
hPa
Press
MSL
hPa
Rain since
9am
mm
Dir  Spd
km/h
Gust
km/h
Spd
kts
Gust
kts
10/11:30pm 20.0 21.9 15.8 77 2.5 CALM 0 0 0 0 - - 0.0
10/11:00pm 20.0 21.8 15.4 75 2.7 CALM 0 0 0 0 - - 0.0
10/10:30pm 20.5 22.2 15.3 72 3.1 CALM 0 6 0 3 - - 0.0
10/10:00pm 21.0 22.7 15.3 70 3.4 CALM 0 6 0 3 - - 0.0
10/09:30pm 21.6 22.2 15.2 67 3.8 ESE 6 11 3 6 - - 0.0
10/09:00pm 21.6 22.6 15.4 68 3.7 E 4 7 2 4 - - 0.0
10/08:30pm 21.7 23.0 15.1 66 3.9 NE 2 9 1 5 - - 0.0
10/08:00pm 21.7 22.7 15.3 67 3.8 ESE 4 7 2 4 - - 0.0
10/07:30pm 21.9 22.6 15.5 67 3.8 E 6 9 3 5 - - 0.0
10/07:00pm 21.9 22.9 15.3 66 3.9 E 4 9 2 5 - - 0.0
10/06:30pm 22.3 23.0 15.6 66 4.0 E 6 11 3 6 - - 0.0
10/06:00pm 22.6 23.2 15.7 65 4.2 E 7 15 4 8 - - 0.0
10/05:30pm 22.0 22.9 16.5 71 3.3 E 7 13 4 7 - - 0.0
10/05:00pm 22.7 23.2 15.5 64 4.3 SE 7 15 4 8 - - 0.0
10/04:30pm 22.8 23.7 16.1 66 4.1 ENE 6 11 3 6 - - 0.0
10/04:00pm 22.7 23.3 15.8 65 4.2 S 7 13 4 7 - - 0.0
10/03:30pm 23.5 23.5 15.3 60 4.9 E 9 15 5 8 - - 0.0
10/03:00pm 23.7 23.3 15.2 59 5.1 ESE 11 19 6 10 - - 0.0
10/02:30pm 24.1 24.8 16.1 61 4.9 SE 7 15 4 8 - - 0.0
10/02:00pm 23.9 24.2 14.9 57 5.4 ESE 7 17 4 9 - - 0.0
10/01:30pm 24.4 23.7 14.2 53 6.0 SE 11 19 6 10 - - 0.0
10/01:00pm 25.1 25.1 16.3 58 5.4 ESE 11 20 6 11 - - 0.0
10/12:30pm 23.9 24.6 15.7 60 5.0 SE 6 15 3 8 - - 0.0
10/12:00pm 23.9 24.2 14.9 57 5.4 SE 7 20 4 11 - - 0.0
10/11:30am 24.3 23.7 14.7 55 5.7 SSE 11 20 6 11 - - 0.0
10/11:00am 24.4 24.0 15.3 57 5.5 S 11 22 6 12 - - 0.0
10/10:30am 24.2 23.7 14.9 56 5.6 SSE 11 26 6 14 - - 0.0
10/10:00am 24.4 23.9 14.8 55 5.7 SE 11 22 6 12 - - 0.0
10/09:30am 25.1 24.6 14.8 52 6.2 SSE 11 24 6 13 - - 0.0
10/09:00am 25.4 25.2 15.7 55 5.9 SE 11 20 6 11 - - 0.6
10/08:30am 25.0 25.3 15.9 57 5.5 SE 9 20 5 11 - - 0.6
10/08:00am 24.1 24.0 16.1 61 4.9 SE 11 22 6 12 - - 0.6
10/07:30am 23.9 24.3 16.2 62 4.7 SSE 9 20 5 11 - - 0.6
10/07:00am 23.4 24.2 16.4 64 4.3 SSE 7 17 4 9 - - 0.6
10/06:30am 22.7 23.6 16.7 69 3.7 SE 7 13 4 7 - - 0.6
10/06:00am 22.2 22.9 17.1 73 3.1 S 9 15 5 8 - - 0.6
10/05:30am 21.0 23.1 18.0 83 1.9 SSW 4 9 2 5 - - 0.6
10/05:00am 21.3 22.8 17.5 79 2.3 S 6 15 3 8 - - 0.4
10/04:30am 21.3 22.8 17.5 79 2.3 S 6 13 3 7 - - 0.4
10/04:00am 21.7 23.2 18.1 80 2.2 S 7 17 4 9 - - 0.4
10/03:30am 21.9 23.6 18.5 81 2.1 SE 7 19 4 10 - - 0.4
10/03:00am 22.1 24.5 20.0 88 1.4 SSE 7 15 4 8 - - 0.4
10/02:30am 21.5 24.5 20.0 91 1.0 SSE 4 9 2 5 - - 0.4
10/02:00am 21.5 24.6 20.3 93 0.8 S 4 9 2 5 - - 0.4
10/01:30am 21.0 23.5 19.8 93 0.8 SW 6 9 3 5 - - 0.4
10/01:00am 20.2 22.3 18.9 92 0.8 SW 6 7 3 4 - - 0.4
10/12:30am 20.1 22.1 18.8 92 0.8 SW 6 7 3 4 - - 0.4
10/12:00am 19.8 21.7 18.5 92 0.8 SW 6 7 3 4 - - 0.4
 
Date/Time
EST
Temp
°C
App
Temp
°C
Dew
Point
°C
Rel
Hum
%
Delta-T
°C
Wind Press
QNH
hPa
Press
MSL
hPa
Rain since
9am
mm
Dir  Spd
km/h
Gust
km/h
Spd
kts
Gust
kts
09/11:30pm 19.6 21.4 18.3 92 0.8 SSW 6 11 3 6 - - 0.4
09/11:00pm 19.8 22.7 18.3 91 0.9 CALM 0 0 0 0 - - 0.4
09/10:30pm 19.9 22.8 18.2 90 1.1 CALM 0 6 0 3 - - 0.4
09/10:00pm 20.5 23.7 18.8 90 1.1 CALM 0 0 0 0 - - 0.4
09/09:30pm 20.7 23.7 18.5 87 1.4 CALM 0 0 0 0 - - 0.4
09/09:00pm 21.6 25.0 19.3 87 1.5 CALM 0 0 0 0 - - 0.4
09/08:30pm 21.8 25.2 19.4 86 1.5 CALM 0 0 0 0 - - 0.4
09/08:00pm 22.0 24.2 19.2 84 1.8 N 6 9 3 5 - - 0.4
09/07:30pm 22.3 25.6 19.1 82 2.0 CALM 0 0 0 0 - - 0.4
09/07:00pm 23.2 26.5 19.1 78 2.6 CALM 0 0 0 0 - - 0.4
09/06:30pm 24.5 28.0 19.6 74 3.2 CALM 0 0 0 0 - - 0.4
09/06:00pm 25.7 29.3 19.8 70 3.8 CALM 0 0 0 0 - - 0.4
09/05:30pm 26.1 29.0 19.0 65 4.6 ENE 2 7 1 4 - - 0.4
09/05:00pm 26.5 28.7 19.1 64 4.8 WSW 6 11 3 6 - - 0.4
09/04:30pm 27.6 29.9 19.4 61 5.3 WSW 6 11 3 6 - - 0.4
09/04:00pm 26.8 28.7 18.6 60 5.2 SW 6 11 3 6 - - 0.4
09/03:30pm 27.1 29.4 19.4 62 5.0 W 6 13 3 7 - - 0.4
09/03:00pm 26.7 31.0 21.2 72 3.7 CALM 0 0 0 0 - - 0.4
09/02:30pm 26.6 30.9 21.1 72 3.6 CALM 0 0 0 0 - - 0.4
09/02:00pm 25.5 29.9 21.4 78 2.7 CALM 0 6 0 3 - - 0.4
09/01:30pm 25.1 28.5 21.0 78 2.7 ENE 4 9 2 5 - - 0.4
09/01:00pm 25.3 29.4 20.8 76 3.0 CALM 0 7 0 4 - - 0.2
09/12:30pm 25.0 28.6 20.5 76 2.9 NW 2 7 1 4 - - 0.2
09/12:00pm 25.4 29.4 21.3 78 2.7 NW 2 7 1 4 - - 0.2
09/11:30am 25.6 28.7 19.5 69 3.9 W 2 7 1 4 - - 0.0
09/11:00am 24.6 27.8 20.5 78 2.7 W 4 9 2 5 - - 0.0
09/10:30am 25.9 27.1 18.3 63 4.8 W 9 19 5 10 - - 0.0
09/10:00am 26.1 26.8 18.8 64 4.7 W 13 28 7 15 - - 0.0
09/09:30am 26.3 27.7 18.7 63 4.9 W 9 35 5 19 - - 0.0
09/09:00am 26.6 27.4 19.0 63 4.9 W 13 24 7 13 - - 6.0
09/08:30am 25.8 27.1 19.2 67 4.2 W 11 26 6 14 - - 6.0
09/08:00am 25.4 27.4 19.1 68 4.0 NNW 7 19 4 10 - - 6.0
09/07:30am 25.3 27.0 19.4 70 3.8 W 9 19 5 10 - - 6.0
09/07:00am 25.4 27.2 19.5 70 3.8 WNW 9 28 5 15 - - 6.0
09/06:30am 25.3 27.2 19.7 71 3.6 WNW 9 24 5 13 - - 6.0
09/06:00am 25.0 26.7 19.4 71 3.6 NW 9 28 5 15 - - 6.0
09/05:30am 24.9 25.9 19.5 72 3.5 NW 13 30 7 16 - - 6.0
09/05:00am 24.8 27.0 19.6 73 3.4 WNW 7 19 4 10 - - 6.0
09/04:30am 23.3 26.4 20.2 83 2.0 W 4 7 2 4 - - 6.0
09/04:00am 23.2 26.7 20.3 84 1.9 WSW 2 6 1 3 - - 6.0
09/03:30am 23.7 26.2 20.2 81 2.3 W 7 15 4 8 - - 6.0
09/03:00am 24.2 26.6 20.1 78 2.7 WNW 7 15 4 8 - - 6.0
09/02:30am 24.0 26.4 20.1 79 2.5 WNW 7 13 4 7 - - 6.0
09/02:00am 24.1 27.1 20.8 82 2.2 NW 6 9 3 5 - - 6.0
09/01:30am 23.8 26.6 20.9 84 1.9 NW 7 11 4 6 - - 6.0
09/01:00am 23.9 26.7 20.8 83 2.0 W 7 13 4 7 - - 6.0
09/12:30am 23.2 25.5 20.7 86 1.6 WNW 9 17 5 9 - - 6.0
09/12:00am 23.1 26.0 21.0 88 1.4 N 7 11 4 6 - - 6.0
 
Date/Time
EST
Temp
°C
App
Temp
°C
Dew
Point
°C
Rel
Hum
%
Delta-T
°C
Wind Press
QNH
hPa
Press
MSL
hPa
Rain since
9am
mm
Dir  Spd
km/h
Gust
km/h
Spd
kts
Gust
kts
08/11:30pm 23.6 25.8 21.1 86 1.6 N 11 20 6 11 - - 5.6
08/11:00pm 23.2 26.0 20.9 87 1.5 NNW 7 13 4 7 - - 4.2
08/10:30pm 23.2 26.4 21.3 89 1.3 NNW 6 7 3 4 - - 3.4
08/10:00pm 22.5 26.2 20.8 90 1.1 NW 2 7 1 4 - - 3.4
08/09:30pm 22.5 24.9 20.8 90 1.1 NNE 9 13 5 7 - - 3.4
08/09:00pm 22.7 26.4 20.8 89 1.2 NNE 2 7 1 4 - - 2.0
08/08:30pm 23.1 26.9 21.0 88 1.4 N 2 6 1 3 - - 1.6
08/08:00pm 23.3 27.6 21.2 88 1.4 CALM 0 7 0 4 - - 1.2
08/07:30pm 23.4 27.7 21.1 87 1.5 CALM 0 6 0 3 - - 1.0
08/07:00pm 24.0 27.7 20.7 82 2.2 SSW 2 7 1 4 - - 0.8
08/06:30pm 25.3 28.3 20.1 73 3.4 SSE 4 6 2 3 - - 0.0
08/06:00pm 25.7 28.3 20.0 71 3.7 NE 6 17 3 9 - - 0.0

Latest Capital City Observations: Canberra | Sydney | Melbourne | Brisbane | Adelaide | Perth | Hobart | Darwin

Other Formats:

Comma delimited format used in spreadsheet applications
http://www.bom.gov.au/fwo/IDQ60901/IDQ60901.95566.axf

JavaScript Object Notation format (JSON) in row-major order
http://www.bom.gov.au/fwo/IDQ60901/IDQ60901.95566.json